sensor_id;sensor_type;location;lat;lon;timestamp;temperature;humidity
12885;DHT22;6510;51.362;7.370;2023-12-22T00:01:46;4.20;99.90
12885;DHT22;6510;51.362;7.370;2023-12-22T00:04:12;4.30;99.90
12885;DHT22;6510;51.362;7.370;2023-12-22T00:06:42;4.20;99.90
12885;DHT22;6510;51.362;7.370;2023-12-22T00:09:08;4.20;99.90
12885;DHT22;6510;51.362;7.370;2023-12-22T00:11:34;4.20;99.90
12885;DHT22;6510;51.362;7.370;2023-12-22T00:13:59;4.20;99.90
12885;DHT22;6510;51.362;7.370;2023-12-22T00:16:25;4.10;99.90
12885;DHT22;6510;51.362;7.370;2023-12-22T00:18:50;4.10;99.90
12885;DHT22;6510;51.362;7.370;2023-12-22T00:21:17;4.20;99.90
12885;DHT22;6510;51.362;7.370;2023-12-22T00:23:43;4.10;99.90
12885;DHT22;6510;51.362;7.370;2023-12-22T00:26:08;4.10;99.90
12885;DHT22;6510;51.362;7.370;2023-12-22T00:28:34;4.00;99.90
12885;DHT22;6510;51.362;7.370;2023-12-22T00:31:00;4.00;99.90
12885;DHT22;6510;51.362;7.370;2023-12-22T00:33:25;4.00;99.90
12885;DHT22;6510;51.362;7.370;2023-12-22T00:35:52;4.10;99.90
12885;DHT22;6510;51.362;7.370;2023-12-22T00:38:17;4.10;99.90
12885;DHT22;6510;51.362;7.370;2023-12-22T00:40:43;4.20;99.90
12885;DHT22;6510;51.362;7.370;2023-12-22T00:43:09;4.10;99.90
12885;DHT22;6510;51.362;7.370;2023-12-22T00:45:34;4.10;99.90
12885;DHT22;6510;51.362;7.370;2023-12-22T00:48:00;4.10;99.90
12885;DHT22;6510;51.362;7.370;2023-12-22T00:50:25;4.20;99.90
12885;DHT22;6510;51.362;7.370;2023-12-22T00:52:51;4.20;99.90
12885;DHT22;6510;51.362;7.370;2023-12-22T00:55:17;4.40;99.90
12885;DHT22;6510;51.362;7.370;2023-12-22T00:57:42;4.30;99.90
12885;DHT22;6510;51.362;7.370;2023-12-22T01:00:08;4.40;99.90
12885;DHT22;6510;51.362;7.370;2023-12-22T01:02:37;4.30;99.90
12885;DHT22;6510;51.362;7.370;2023-12-22T01:05:04;4.30;99.90
12885;DHT22;6510;51.362;7.370;2023-12-22T01:07:29;4.30;99.90
12885;DHT22;6510;51.362;7.370;2023-12-22T01:09:56;4.30;99.90
12885;DHT22;6510;51.362;7.370;2023-12-22T01:12:21;4.40;99.90
12885;DHT22;6510;51.362;7.370;2023-12-22T01:14:47;4.40;99.90
12885;DHT22;6510;51.362;7.370;2023-12-22T01:17:14;4.40;99.90
12885;DHT22;6510;51.362;7.370;2023-12-22T01:19:40;4.40;99.90
12885;DHT22;6510;51.362;7.370;2023-12-22T01:22:05;4.40;99.90
12885;DHT22;6510;51.362;7.370;2023-12-22T01:24:31;4.50;99.90
12885;DHT22;6510;51.362;7.370;2023-12-22T01:26:56;4.50;99.90
12885;DHT22;6510;51.362;7.370;2023-12-22T01:29:22;4.50;99.90
12885;DHT22;6510;51.362;7.370;2023-12-22T01:31:48;4.60;99.90
12885;DHT22;6510;51.362;7.370;2023-12-22T01:34:13;4.60;99.90
12885;DHT22;6510;51.362;7.370;2023-12-22T01:36:39;4.60;99.90
12885;DHT22;6510;51.362;7.370;2023-12-22T01:39:04;4.60;99.90
12885;DHT22;6510;51.362;7.370;2023-12-22T01:41:30;4.60;99.90
12885;DHT22;6510;51.362;7.370;2023-12-22T01:43:56;4.60;99.90
12885;DHT22;6510;51.362;7.370;2023-12-22T01:46:21;4.60;99.90
12885;DHT22;6510;51.362;7.370;2023-12-22T01:48:47;4.60;99.90
12885;DHT22;6510;51.362;7.370;2023-12-22T01:51:13;4.50;99.90
12885;DHT22;6510;51.362;7.370;2023-12-22T01:53:39;4.40;99.90
12885;DHT22;6510;51.362;7.370;2023-12-22T01:56:07;4.40;99.90
12885;DHT22;6510;51.362;7.370;2023-12-22T01:58:35;4.40;99.90
12885;DHT22;6510;51.362;7.370;2023-12-22T02:01:01;4.20;99.90
12885;DHT22;6510;51.362;7.370;2023-12-22T02:03:28;4.10;99.90
12885;DHT22;6510;51.362;7.370;2023-12-22T02:05:54;4.00;99.90
12885;DHT22;6510;51.362;7.370;2023-12-22T02:08:21;4.00;99.90
12885;DHT22;6510;51.362;7.370;2023-12-22T02:10:48;3.90;99.90
12885;DHT22;6510;51.362;7.370;2023-12-22T02:13:14;4.00;99.90
12885;DHT22;6510;51.362;7.370;2023-12-22T02:15:43;4.00;99.90
12885;DHT22;6510;51.362;7.370;2023-12-22T02:18:14;3.90;99.90
12885;DHT22;6510;51.362;7.370;2023-12-22T02:20:53;3.90;99.90
12885;DHT22;6510;51.362;7.370;2023-12-22T02:23:19;3.90;99.90
12885;DHT22;6510;51.362;7.370;2023-12-22T02:25:45;4.00;99.90
12885;DHT22;6510;51.362;7.370;2023-12-22T02:28:14;4.00;99.90
12885;DHT22;6510;51.362;7.370;2023-12-22T02:31:04;3.90;99.90
12885;DHT22;6510;51.362;7.370;2023-12-22T02:33:35;3.90;99.90
12885;DHT22;6510;51.362;7.370;2023-12-22T02:36:04;4.00;99.90
12885;DHT22;6510;51.362;7.370;2023-12-22T02:38:33;4.00;99.90
12885;DHT22;6510;51.362;7.370;2023-12-22T02:41:00;4.00;99.90
12885;DHT22;6510;51.362;7.370;2023-12-22T02:43:26;4.00;99.90
12885;DHT22;6510;51.362;7.370;2023-12-22T02:45:52;4.00;99.90
12885;DHT22;6510;51.362;7.370;2023-12-22T02:48:18;4.10;99.90
12885;DHT22;6510;51.362;7.370;2023-12-22T02:50:43;4.00;99.90
12885;DHT22;6510;51.362;7.370;2023-12-22T02:53:09;4.00;99.90
12885;DHT22;6510;51.362;7.370;2023-12-22T02:55:34;4.00;99.90
12885;DHT22;6510;51.362;7.370;2023-12-22T02:58:00;4.00;99.90
12885;DHT22;6510;51.362;7.370;2023-12-22T03:00:26;4.10;99.90
12885;DHT22;6510;51.362;7.370;2023-12-22T03:02:51;4.10;99.90
12885;DHT22;6510;51.362;7.370;2023-12-22T03:05:17;4.00;99.90
12885;DHT22;6510;51.362;7.370;2023-12-22T03:07:42;4.00;99.90
12885;DHT22;6510;51.362;7.370;2023-12-22T03:10:08;4.10;99.90
12885;DHT22;6510;51.362;7.370;2023-12-22T03:12:34;4.00;99.90
12885;DHT22;6510;51.362;7.370;2023-12-22T03:14:59;4.10;99.90
12885;DHT22;6510;51.362;7.370;2023-12-22T03:17:25;4.00;99.90
12885;DHT22;6510;51.362;7.370;2023-12-22T03:19:51;4.10;99.90
12885;DHT22;6510;51.362;7.370;2023-12-22T03:22:16;4.10;99.90
12885;DHT22;6510;51.362;7.370;2023-12-22T03:24:42;4.10;99.90
12885;DHT22;6510;51.362;7.370;2023-12-22T03:27:07;4.20;99.90
12885;DHT22;6510;51.362;7.370;2023-12-22T03:29:33;4.10;99.90
12885;DHT22;6510;51.362;7.370;2023-12-22T03:31:59;4.20;99.90
12885;DHT22;6510;51.362;7.370;2023-12-22T03:34:24;4.20;99.90
12885;DHT22;6510;51.362;7.370;2023-12-22T03:36:50;4.30;99.90
12885;DHT22;6510;51.362;7.370;2023-12-22T03:39:18;4.30;99.90
12885;DHT22;6510;51.362;7.370;2023-12-22T03:41:43;4.30;99.90
12885;DHT22;6510;51.362;7.370;2023-12-22T03:44:09;4.40;99.90
12885;DHT22;6510;51.362;7.370;2023-12-22T03:46:35;4.30;99.90
12885;DHT22;6510;51.362;7.370;2023-12-22T03:49:01;4.30;99.90
12885;DHT22;6510;51.362;7.370;2023-12-22T03:51:26;4.40;99.90
12885;DHT22;6510;51.362;7.370;2023-12-22T03:53:52;4.40;99.90
12885;DHT22;6510;51.362;7.370;2023-12-22T03:56:17;4.40;99.90
12885;DHT22;6510;51.362;7.370;2023-12-22T03:58:46;4.30;99.90
12885;DHT22;6510;51.362;7.370;2023-12-22T04:01:14;4.20;99.90
12885;DHT22;6510;51.362;7.370;2023-12-22T04:03:40;4.20;99.90
12885;DHT22;6510;51.362;7.370;2023-12-22T04:06:06;4.30;99.90
12885;DHT22;6510;51.362;7.370;2023-12-22T04:08:32;4.20;99.90
12885;DHT22;6510;51.362;7.370;2023-12-22T04:10:57;4.20;99.90
12885;DHT22;6510;51.362;7.370;2023-12-22T04:13:28;4.30;99.90
12885;DHT22;6510;51.362;7.370;2023-12-22T04:16:09;4.20;99.90
12885;DHT22;6510;51.362;7.370;2023-12-22T04:18:35;4.20;99.90
12885;DHT22;6510;51.362;7.370;2023-12-22T04:21:01;4.30;99.90
12885;DHT22;6510;51.362;7.370;2023-12-22T04:23:32;4.20;99.90
12885;DHT22;6510;51.362;7.370;2023-12-22T04:26:05;4.30;99.90
12885;DHT22;6510;51.362;7.370;2023-12-22T04:28:43;4.30;99.90
12885;DHT22;6510;51.362;7.370;2023-12-22T04:31:08;4.30;99.90
12885;DHT22;6510;51.362;7.370;2023-12-22T04:33:34;4.40;99.90
12885;DHT22;6510;51.362;7.370;2023-12-22T04:36:00;4.30;99.90
12885;DHT22;6510;51.362;7.370;2023-12-22T04:38:29;4.40;99.90
12885;DHT22;6510;51.362;7.370;2023-12-22T04:40:54;4.30;99.90
12885;DHT22;6510;51.362;7.370;2023-12-22T04:43:20;4.30;99.90
12885;DHT22;6510;51.362;7.370;2023-12-22T04:45:45;4.20;99.90
12885;DHT22;6510;51.362;7.370;2023-12-22T04:48:14;4.20;99.90
12885;DHT22;6510;51.362;7.370;2023-12-22T04:50:39;4.10;99.90
12885;DHT22;6510;51.362;7.370;2023-12-22T04:53:06;4.00;99.90
12885;DHT22;6510;51.362;7.370;2023-12-22T04:55:31;3.90;99.90
12885;DHT22;6510;51.362;7.370;2023-12-22T04:57:57;3.80;99.90
12885;DHT22;6510;51.362;7.370;2023-12-22T05:00:22;3.90;99.90
12885;DHT22;6510;51.362;7.370;2023-12-22T05:02:48;3.80;99.90
12885;DHT22;6510;51.362;7.370;2023-12-22T05:05:14;3.80;99.90
12885;DHT22;6510;51.362;7.370;2023-12-22T05:07:39;3.80;99.90
12885;DHT22;6510;51.362;7.370;2023-12-22T05:10:06;3.80;99.90
12885;DHT22;6510;51.362;7.370;2023-12-22T05:12:32;3.70;99.90
12885;DHT22;6510;51.362;7.370;2023-12-22T05:14:57;3.80;99.90
12885;DHT22;6510;51.362;7.370;2023-12-22T05:17:23;3.70;99.90
12885;DHT22;6510;51.362;7.370;2023-12-22T05:19:48;3.70;99.90
12885;DHT22;6510;51.362;7.370;2023-12-22T05:22:14;3.70;99.90
12885;DHT22;6510;51.362;7.370;2023-12-22T05:24:39;3.80;99.90
12885;DHT22;6510;51.362;7.370;2023-12-22T05:27:05;3.70;99.90
12885;DHT22;6510;51.362;7.370;2023-12-22T05:29:31;3.70;99.90
12885;DHT22;6510;51.362;7.370;2023-12-22T05:31:56;3.70;99.90
12885;DHT22;6510;51.362;7.370;2023-12-22T05:34:22;3.70;99.90
12885;DHT22;6510;51.362;7.370;2023-12-22T05:36:47;3.70;99.90
12885;DHT22;6510;51.362;7.370;2023-12-22T05:39:13;3.80;99.90
12885;DHT22;6510;51.362;7.370;2023-12-22T05:41:38;3.80;99.90
12885;DHT22;6510;51.362;7.370;2023-12-22T05:44:07;3.90;99.90
12885;DHT22;6510;51.362;7.370;2023-12-22T05:46:36;4.00;99.90
12885;DHT22;6510;51.362;7.370;2023-12-22T05:49:03;4.00;99.90
12885;DHT22;6510;51.362;7.370;2023-12-22T05:51:29;4.00;99.90
12885;DHT22;6510;51.362;7.370;2023-12-22T05:54:01;4.00;99.90
12885;DHT22;6510;51.362;7.370;2023-12-22T05:56:26;4.10;99.90
12885;DHT22;6510;51.362;7.370;2023-12-22T05:58:52;4.10;99.90
12885;DHT22;6510;51.362;7.370;2023-12-22T06:01:18;4.10;99.90
12885;DHT22;6510;51.362;7.370;2023-12-22T06:03:45;4.10;99.90
12885;DHT22;6510;51.362;7.370;2023-12-22T06:06:11;4.10;99.90
12885;DHT22;6510;51.362;7.370;2023-12-22T06:08:37;4.10;99.90
12885;DHT22;6510;51.362;7.370;2023-12-22T06:11:04;4.10;99.90
12885;DHT22;6510;51.362;7.370;2023-12-22T06:13:30;4.20;99.90
12885;DHT22;6510;51.362;7.370;2023-12-22T06:15:56;4.20;99.90
12885;DHT22;6510;51.362;7.370;2023-12-22T06:18:22;4.20;99.90
12885;DHT22;6510;51.362;7.370;2023-12-22T06:20:47;4.10;99.90
12885;DHT22;6510;51.362;7.370;2023-12-22T06:23:13;4.20;99.90
12885;DHT22;6510;51.362;7.370;2023-12-22T06:25:39;4.20;99.90
12885;DHT22;6510;51.362;7.370;2023-12-22T06:28:04;4.30;99.90
12885;DHT22;6510;51.362;7.370;2023-12-22T06:30:30;4.20;99.90
12885;DHT22;6510;51.362;7.370;2023-12-22T06:32:56;4.30;99.90
12885;DHT22;6510;51.362;7.370;2023-12-22T06:35:21;4.30;99.90
12885;DHT22;6510;51.362;7.370;2023-12-22T06:37:53;4.30;99.90
12885;DHT22;6510;51.362;7.370;2023-12-22T06:40:20;4.20;99.90
12885;DHT22;6510;51.362;7.370;2023-12-22T06:42:46;4.20;99.90
12885;DHT22;6510;51.362;7.370;2023-12-22T06:45:11;4.20;99.90
12885;DHT22;6510;51.362;7.370;2023-12-22T06:47:37;4.20;99.90
12885;DHT22;6510;51.362;7.370;2023-12-22T06:50:03;4.30;99.90
12885;DHT22;6510;51.362;7.370;2023-12-22T06:52:29;4.20;99.90
12885;DHT22;6510;51.362;7.370;2023-12-22T06:54:56;4.10;99.90
12885;DHT22;6510;51.362;7.370;2023-12-22T06:57:21;4.10;99.90
12885;DHT22;6510;51.362;7.370;2023-12-22T06:59:47;4.20;99.90
12885;DHT22;6510;51.362;7.370;2023-12-22T07:02:15;4.20;99.90
12885;DHT22;6510;51.362;7.370;2023-12-22T07:05:05;4.20;99.90
12885;DHT22;6510;51.362;7.370;2023-12-22T07:07:48;4.30;99.90
12885;DHT22;6510;51.362;7.370;2023-12-22T07:10:13;4.30;99.90
12885;DHT22;6510;51.362;7.370;2023-12-22T07:12:39;4.40;99.90
12885;DHT22;6510;51.362;7.370;2023-12-22T07:15:05;4.40;99.90
12885;DHT22;6510;51.362;7.370;2023-12-22T07:17:34;4.40;99.90
12885;DHT22;6510;51.362;7.370;2023-12-22T07:20:00;4.50;99.90
12885;DHT22;6510;51.362;7.370;2023-12-22T07:22:28;4.50;99.90
12885;DHT22;6510;51.362;7.370;2023-12-22T07:24:54;4.50;99.90
12885;DHT22;6510;51.362;7.370;2023-12-22T07:27:21;4.50;99.90
12885;DHT22;6510;51.362;7.370;2023-12-22T07:29:46;4.60;99.90
12885;DHT22;6510;51.362;7.370;2023-12-22T07:32:12;4.60;99.90
12885;DHT22;6510;51.362;7.370;2023-12-22T07:34:38;4.60;99.90
12885;DHT22;6510;51.362;7.370;2023-12-22T07:37:03;4.60;99.90
12885;DHT22;6510;51.362;7.370;2023-12-22T07:39:30;4.70;99.90
12885;DHT22;6510;51.362;7.370;2023-12-22T07:41:55;4.70;99.90
12885;DHT22;6510;51.362;7.370;2023-12-22T07:44:21;4.70;99.90
12885;DHT22;6510;51.362;7.370;2023-12-22T07:46:56;4.70;99.90
12885;DHT22;6510;51.362;7.370;2023-12-22T07:49:22;4.80;99.90
12885;DHT22;6510;51.362;7.370;2023-12-22T07:51:51;4.90;99.90
12885;DHT22;6510;51.362;7.370;2023-12-22T07:54:17;4.90;99.90
12885;DHT22;6510;51.362;7.370;2023-12-22T07:56:43;5.00;99.90
12885;DHT22;6510;51.362;7.370;2023-12-22T07:59:09;5.00;99.90
12885;DHT22;6510;51.362;7.370;2023-12-22T08:01:35;5.00;99.90
12885;DHT22;6510;51.362;7.370;2023-12-22T08:04:00;5.10;99.90
12885;DHT22;6510;51.362;7.370;2023-12-22T08:06:26;5.20;99.90
12885;DHT22;6510;51.362;7.370;2023-12-22T08:08:51;5.20;99.90
12885;DHT22;6510;51.362;7.370;2023-12-22T08:11:17;5.30;99.90
12885;DHT22;6510;51.362;7.370;2023-12-22T08:13:43;5.30;99.90
12885;DHT22;6510;51.362;7.370;2023-12-22T08:16:08;5.30;99.90
12885;DHT22;6510;51.362;7.370;2023-12-22T08:18:35;5.50;99.90
12885;DHT22;6510;51.362;7.370;2023-12-22T08:21:01;5.50;99.90
12885;DHT22;6510;51.362;7.370;2023-12-22T08:23:29;5.60;99.90
12885;DHT22;6510;51.362;7.370;2023-12-22T08:26:00;5.70;99.90
12885;DHT22;6510;51.362;7.370;2023-12-22T08:28:31;5.70;99.90
12885;DHT22;6510;51.362;7.370;2023-12-22T08:31:11;5.70;99.90
12885;DHT22;6510;51.362;7.370;2023-12-22T08:33:39;5.80;99.90
12885;DHT22;6510;51.362;7.370;2023-12-22T08:36:07;6.00;99.90
12885;DHT22;6510;51.362;7.370;2023-12-22T08:38:32;5.90;99.90
12885;DHT22;6510;51.362;7.370;2023-12-22T08:40:58;6.00;99.90
12885;DHT22;6510;51.362;7.370;2023-12-22T08:43:24;6.00;99.90
12885;DHT22;6510;51.362;7.370;2023-12-22T08:46:00;6.10;99.90
12885;DHT22;6510;51.362;7.370;2023-12-22T08:48:26;6.20;99.90
12885;DHT22;6510;51.362;7.370;2023-12-22T08:50:58;6.30;99.90
12885;DHT22;6510;51.362;7.370;2023-12-22T08:53:24;6.20;99.90
12885;DHT22;6510;51.362;7.370;2023-12-22T08:55:56;6.20;99.90
12885;DHT22;6510;51.362;7.370;2023-12-22T08:58:22;6.20;99.90
12885;DHT22;6510;51.362;7.370;2023-12-22T09:00:47;6.40;99.90
12885;DHT22;6510;51.362;7.370;2023-12-22T09:03:13;6.40;99.90
12885;DHT22;6510;51.362;7.370;2023-12-22T09:05:42;6.40;99.90
12885;DHT22;6510;51.362;7.370;2023-12-22T09:08:10;6.40;99.90
12885;DHT22;6510;51.362;7.370;2023-12-22T09:10:38;6.50;99.90
12885;DHT22;6510;51.362;7.370;2023-12-22T09:13:04;6.50;99.90
12885;DHT22;6510;51.362;7.370;2023-12-22T09:15:30;6.60;99.90
12885;DHT22;6510;51.362;7.370;2023-12-22T09:17:55;6.50;99.90
12885;DHT22;6510;51.362;7.370;2023-12-22T09:20:39;6.50;99.90
12885;DHT22;6510;51.362;7.370;2023-12-22T09:23:08;6.50;99.90
12885;DHT22;6510;51.362;7.370;2023-12-22T09:25:41;6.50;99.90
12885;DHT22;6510;51.362;7.370;2023-12-22T09:28:10;6.50;99.90
12885;DHT22;6510;51.362;7.370;2023-12-22T09:30:38;6.50;99.90
12885;DHT22;6510;51.362;7.370;2023-12-22T09:33:06;6.40;99.90
12885;DHT22;6510;51.362;7.370;2023-12-22T09:35:40;6.20;99.90
12885;DHT22;6510;51.362;7.370;2023-12-22T09:38:08;6.00;99.90
12885;DHT22;6510;51.362;7.370;2023-12-22T09:40:41;5.80;99.90
12885;DHT22;6510;51.362;7.370;2023-12-22T09:43:08;5.70;99.90
12885;DHT22;6510;51.362;7.370;2023-12-22T09:45:35;5.60;99.90
12885;DHT22;6510;51.362;7.370;2023-12-22T09:48:03;5.60;99.90
12885;DHT22;6510;51.362;7.370;2023-12-22T09:50:30;5.50;99.90
12885;DHT22;6510;51.362;7.370;2023-12-22T09:52:56;5.50;99.90
12885;DHT22;6510;51.362;7.370;2023-12-22T09:55:23;5.40;99.90
12885;DHT22;6510;51.362;7.370;2023-12-22T09:57:49;5.40;99.90
12885;DHT22;6510;51.362;7.370;2023-12-22T10:00:15;5.40;99.90
12885;DHT22;6510;51.362;7.370;2023-12-22T10:02:43;5.40;99.90
12885;DHT22;6510;51.362;7.370;2023-12-22T10:05:11;5.40;99.90
12885;DHT22;6510;51.362;7.370;2023-12-22T10:07:39;5.40;99.90
12885;DHT22;6510;51.362;7.370;2023-12-22T10:10:06;5.40;99.90
12885;DHT22;6510;51.362;7.370;2023-12-22T10:12:33;5.30;99.90
12885;DHT22;6510;51.362;7.370;2023-12-22T10:15:00;5.50;99.90
12885;DHT22;6510;51.362;7.370;2023-12-22T10:17:26;5.60;99.90
12885;DHT22;6510;51.362;7.370;2023-12-22T10:19:52;5.70;99.90
12885;DHT22;6510;51.362;7.370;2023-12-22T10:22:18;5.70;99.90
12885;DHT22;6510;51.362;7.370;2023-12-22T10:24:44;5.70;99.90
12885;DHT22;6510;51.362;7.370;2023-12-22T10:27:13;5.70;99.90
12885;DHT22;6510;51.362;7.370;2023-12-22T10:29:39;5.60;99.90
12885;DHT22;6510;51.362;7.370;2023-12-22T10:32:08;5.70;99.90
12885;DHT22;6510;51.362;7.370;2023-12-22T10:34:37;5.70;99.90
12885;DHT22;6510;51.362;7.370;2023-12-22T10:37:04;5.70;99.90
12885;DHT22;6510;51.362;7.370;2023-12-22T10:39:30;5.80;99.90
12885;DHT22;6510;51.362;7.370;2023-12-22T10:41:59;5.90;99.90
12885;DHT22;6510;51.362;7.370;2023-12-22T10:44:26;5.90;99.90
12885;DHT22;6510;51.362;7.370;2023-12-22T10:46:52;6.00;99.90
12885;DHT22;6510;51.362;7.370;2023-12-22T10:49:19;6.10;99.90
12885;DHT22;6510;51.362;7.370;2023-12-22T10:51:45;6.20;99.90
12885;DHT22;6510;51.362;7.370;2023-12-22T10:54:10;6.20;99.90
12885;DHT22;6510;51.362;7.370;2023-12-22T10:56:36;6.30;99.90
12885;DHT22;6510;51.362;7.370;2023-12-22T10:59:02;6.40;99.90
12885;DHT22;6510;51.362;7.370;2023-12-22T11:01:29;6.40;99.90
12885;DHT22;6510;51.362;7.370;2023-12-22T11:03:58;6.50;99.90
12885;DHT22;6510;51.362;7.370;2023-12-22T11:06:27;6.50;99.90
12885;DHT22;6510;51.362;7.370;2023-12-22T11:08:56;6.60;99.90
12885;DHT22;6510;51.362;7.370;2023-12-22T11:11:28;6.60;99.90
12885;DHT22;6510;51.362;7.370;2023-12-22T11:14:00;6.60;99.90
12885;DHT22;6510;51.362;7.370;2023-12-22T11:16:28;6.60;99.90
12885;DHT22;6510;51.362;7.370;2023-12-22T11:18:55;6.60;99.90
12885;DHT22;6510;51.362;7.370;2023-12-22T11:21:24;6.50;99.90
12885;DHT22;6510;51.362;7.370;2023-12-22T11:23:51;6.50;99.90
12885;DHT22;6510;51.362;7.370;2023-12-22T11:26:17;6.40;99.90
12885;DHT22;6510;51.362;7.370;2023-12-22T11:28:45;6.40;99.90
12885;DHT22;6510;51.362;7.370;2023-12-22T11:31:12;6.30;99.90
12885;DHT22;6510;51.362;7.370;2023-12-22T11:33:42;6.30;99.90
12885;DHT22;6510;51.362;7.370;2023-12-22T11:36:08;6.30;99.90
12885;DHT22;6510;51.362;7.370;2023-12-22T11:38:35;6.20;99.90
12885;DHT22;6510;51.362;7.370;2023-12-22T11:41:01;6.20;99.90
12885;DHT22;6510;51.362;7.370;2023-12-22T11:43:28;6.20;99.90
12885;DHT22;6510;51.362;7.370;2023-12-22T11:45:55;6.20;99.90
12885;DHT22;6510;51.362;7.370;2023-12-22T11:48:22;6.20;99.90
12885;DHT22;6510;51.362;7.370;2023-12-22T11:50:48;6.30;99.90
12885;DHT22;6510;51.362;7.370;2023-12-22T11:56:02;6.20;99.90
12885;DHT22;6510;51.362;7.370;2023-12-22T11:58:40;6.10;99.90
12885;DHT22;6510;51.362;7.370;2023-12-22T12:01:08;6.10;99.90
12885;DHT22;6510;51.362;7.370;2023-12-22T12:03:36;6.20;99.90
12885;DHT22;6510;51.362;7.370;2023-12-22T12:06:11;6.20;99.90
12885;DHT22;6510;51.362;7.370;2023-12-22T12:08:36;6.20;99.90
12885;DHT22;6510;51.362;7.370;2023-12-22T12:11:02;6.20;99.90
12885;DHT22;6510;51.362;7.370;2023-12-22T12:13:31;6.30;99.90
12885;DHT22;6510;51.362;7.370;2023-12-22T12:15:59;6.40;99.90
12885;DHT22;6510;51.362;7.370;2023-12-22T12:18:29;6.60;99.90
12885;DHT22;6510;51.362;7.370;2023-12-22T12:21:20;6.70;99.90
12885;DHT22;6510;51.362;7.370;2023-12-22T12:23:48;6.60;99.90
12885;DHT22;6510;51.362;7.370;2023-12-22T12:26:14;6.70;99.90
12885;DHT22;6510;51.362;7.370;2023-12-22T12:28:44;6.80;99.90
12885;DHT22;6510;51.362;7.370;2023-12-22T12:31:11;6.70;99.90
12885;DHT22;6510;51.362;7.370;2023-12-22T12:33:37;6.80;99.90
12885;DHT22;6510;51.362;7.370;2023-12-22T12:36:05;6.80;99.90
12885;DHT22;6510;51.362;7.370;2023-12-22T12:41:27;7.00;99.90
12885;DHT22;6510;51.362;7.370;2023-12-22T12:44:01;7.20;99.90
12885;DHT22;6510;51.362;7.370;2023-12-22T12:46:38;7.40;99.90
12885;DHT22;6510;51.362;7.370;2023-12-22T12:49:18;7.40;99.90
12885;DHT22;6510;51.362;7.370;2023-12-22T12:52:00;7.40;99.90
12885;DHT22;6510;51.362;7.370;2023-12-22T12:54:51;7.50;99.90
12885;DHT22;6510;51.362;7.370;2023-12-22T12:57:20;7.60;99.90
12885;DHT22;6510;51.362;7.370;2023-12-22T12:59:51;7.70;99.90
12885;DHT22;6510;51.362;7.370;2023-12-22T13:02:18;7.70;99.90
12885;DHT22;6510;51.362;7.370;2023-12-22T13:04:47;7.70;99.90
12885;DHT22;6510;51.362;7.370;2023-12-22T13:07:23;7.70;99.90
12885;DHT22;6510;51.362;7.370;2023-12-22T13:09:50;7.70;99.90
12885;DHT22;6510;51.362;7.370;2023-12-22T13:12:18;7.70;99.90
12885;DHT22;6510;51.362;7.370;2023-12-22T13:15:07;7.60;99.90
12885;DHT22;6510;51.362;7.370;2023-12-22T13:17:46;7.50;99.90
12885;DHT22;6510;51.362;7.370;2023-12-22T13:21:03;7.40;99.90
12885;DHT22;6510;51.362;7.370;2023-12-22T13:23:32;7.30;99.90
12885;DHT22;6510;51.362;7.370;2023-12-22T13:26:17;7.30;99.90
12885;DHT22;6510;51.362;7.370;2023-12-22T13:28:43;7.30;99.90
12885;DHT22;6510;51.362;7.370;2023-12-22T13:31:20;7.30;99.90
12885;DHT22;6510;51.362;7.370;2023-12-22T13:33:46;7.40;99.90
12885;DHT22;6510;51.362;7.370;2023-12-22T13:36:11;7.40;99.90
12885;DHT22;6510;51.362;7.370;2023-12-22T13:38:38;7.40;99.90
12885;DHT22;6510;51.362;7.370;2023-12-22T13:41:06;7.40;99.90
12885;DHT22;6510;51.362;7.370;2023-12-22T13:43:56;7.40;99.90
12885;DHT22;6510;51.362;7.370;2023-12-22T13:46:26;7.50;99.90
12885;DHT22;6510;51.362;7.370;2023-12-22T13:48:54;7.50;99.90
12885;DHT22;6510;51.362;7.370;2023-12-22T13:51:20;7.40;99.90
12885;DHT22;6510;51.362;7.370;2023-12-22T13:53:49;7.40;99.90
12885;DHT22;6510;51.362;7.370;2023-12-22T13:56:15;7.40;99.90
12885;DHT22;6510;51.362;7.370;2023-12-22T13:58:47;7.40;99.90
12885;DHT22;6510;51.362;7.370;2023-12-22T14:01:16;7.40;99.90
12885;DHT22;6510;51.362;7.370;2023-12-22T14:03:43;7.40;99.90
12885;DHT22;6510;51.362;7.370;2023-12-22T14:06:10;7.50;99.90
12885;DHT22;6510;51.362;7.370;2023-12-22T14:08:40;7.60;99.90
12885;DHT22;6510;51.362;7.370;2023-12-22T14:11:07;7.60;99.90
12885;DHT22;6510;51.362;7.370;2023-12-22T14:13:33;7.70;99.90
12885;DHT22;6510;51.362;7.370;2023-12-22T14:15:59;7.70;99.90
12885;DHT22;6510;51.362;7.370;2023-12-22T14:18:25;7.70;99.90
12885;DHT22;6510;51.362;7.370;2023-12-22T14:20:50;7.70;99.90
12885;DHT22;6510;51.362;7.370;2023-12-22T14:23:16;7.80;99.90
12885;DHT22;6510;51.362;7.370;2023-12-22T14:25:42;7.70;99.90
12885;DHT22;6510;51.362;7.370;2023-12-22T14:28:08;7.80;99.90
12885;DHT22;6510;51.362;7.370;2023-12-22T14:30:34;7.80;99.90
12885;DHT22;6510;51.362;7.370;2023-12-22T14:33:00;7.80;99.90
12885;DHT22;6510;51.362;7.370;2023-12-22T14:35:25;7.80;99.90
12885;DHT22;6510;51.362;7.370;2023-12-22T14:37:51;7.80;99.90
12885;DHT22;6510;51.362;7.370;2023-12-22T14:40:17;7.80;99.90
12885;DHT22;6510;51.362;7.370;2023-12-22T14:42:42;7.80;99.90
12885;DHT22;6510;51.362;7.370;2023-12-22T14:45:08;7.80;99.90
12885;DHT22;6510;51.362;7.370;2023-12-22T14:47:34;7.90;99.90
12885;DHT22;6510;51.362;7.370;2023-12-22T14:50:01;7.90;99.90
12885;DHT22;6510;51.362;7.370;2023-12-22T14:52:30;7.90;99.90
12885;DHT22;6510;51.362;7.370;2023-12-22T14:55:00;7.90;99.90
12885;DHT22;6510;51.362;7.370;2023-12-22T14:57:26;7.90;99.90
12885;DHT22;6510;51.362;7.370;2023-12-22T14:59:54;7.90;99.90
12885;DHT22;6510;51.362;7.370;2023-12-22T15:02:20;7.90;99.90
12885;DHT22;6510;51.362;7.370;2023-12-22T15:04:45;8.00;99.90
12885;DHT22;6510;51.362;7.370;2023-12-22T15:07:20;7.90;99.90
12885;DHT22;6510;51.362;7.370;2023-12-22T15:09:46;7.90;99.90
12885;DHT22;6510;51.362;7.370;2023-12-22T15:12:14;7.90;99.90
12885;DHT22;6510;51.362;7.370;2023-12-22T15:14:44;7.80;99.90
12885;DHT22;6510;51.362;7.370;2023-12-22T15:17:10;7.90;99.90
12885;DHT22;6510;51.362;7.370;2023-12-22T15:19:40;7.90;99.90
12885;DHT22;6510;51.362;7.370;2023-12-22T15:22:06;7.90;99.90
12885;DHT22;6510;51.362;7.370;2023-12-22T15:24:32;7.90;99.90
12885;DHT22;6510;51.362;7.370;2023-12-22T15:26:57;7.90;99.90
12885;DHT22;6510;51.362;7.370;2023-12-22T15:29:23;7.90;99.90
12885;DHT22;6510;51.362;7.370;2023-12-22T15:31:49;7.80;99.90
12885;DHT22;6510;51.362;7.370;2023-12-22T15:34:15;7.80;99.90
12885;DHT22;6510;51.362;7.370;2023-12-22T15:36:40;7.80;99.90
12885;DHT22;6510;51.362;7.370;2023-12-22T15:39:06;7.90;99.90
12885;DHT22;6510;51.362;7.370;2023-12-22T15:41:31;7.80;99.90
12885;DHT22;6510;51.362;7.370;2023-12-22T15:43:57;7.80;99.90
12885;DHT22;6510;51.362;7.370;2023-12-22T15:46:23;7.70;99.90
12885;DHT22;6510;51.362;7.370;2023-12-22T15:48:48;7.70;99.90
12885;DHT22;6510;51.362;7.370;2023-12-22T15:51:14;7.70;99.90
12885;DHT22;6510;51.362;7.370;2023-12-22T15:53:40;7.60;99.90
12885;DHT22;6510;51.362;7.370;2023-12-22T15:56:10;7.60;99.90
12885;DHT22;6510;51.362;7.370;2023-12-22T15:58:40;7.70;99.90
12885;DHT22;6510;51.362;7.370;2023-12-22T16:01:06;7.70;99.90
12885;DHT22;6510;51.362;7.370;2023-12-22T16:03:32;7.80;99.90
12885;DHT22;6510;51.362;7.370;2023-12-22T16:06:01;7.80;99.90
12885;DHT22;6510;51.362;7.370;2023-12-22T16:08:27;7.90;99.90
12885;DHT22;6510;51.362;7.370;2023-12-22T16:10:53;7.80;99.90